createdAt,value
2018-08-16T00:00:13.238Z,99.99
2018-08-16T00:01:34.139Z,99.99
2018-08-16T00:02:13.095Z,99.99
2018-08-16T00:03:34.001Z,99.99
2018-08-16T00:04:12.943Z,99.99
2018-08-16T00:05:12.879Z,99.99
2018-08-16T00:06:33.784Z,99.99
2018-08-16T00:07:12.735Z,99.99
2018-08-16T00:08:33.643Z,99.99
2018-08-16T00:09:12.590Z,99.99
2018-08-16T00:10:12.516Z,99.99
2018-08-16T00:11:33.438Z,99.99
2018-08-16T00:12:12.377Z,99.99
2018-08-16T00:13:33.298Z,99.99
2018-08-16T00:14:12.231Z,99.99
2018-08-16T00:15:12.166Z,99.99
2018-08-16T00:16:33.075Z,99.99
2018-08-16T00:17:12.018Z,99.99
2018-08-16T00:18:32.934Z,99.99
2018-08-16T00:19:11.885Z,99.99
2018-08-16T00:20:11.805Z,99.99
2018-08-16T00:21:32.720Z,99.99
2018-08-16T00:22:11.665Z,99.99
2018-08-16T00:23:32.574Z,99.99
2018-08-16T00:24:11.523Z,99.99
2018-08-16T00:25:11.450Z,99.99
2018-08-16T00:26:32.364Z,99.99
2018-08-16T00:27:11.308Z,99.99
2018-08-16T00:28:32.218Z,99.99
2018-08-16T00:29:11.160Z,99.99
2018-08-16T00:30:11.090Z,99.99
2018-08-16T00:31:32.006Z,99.99
2018-08-16T00:32:10.948Z,99.99
2018-08-16T00:33:31.870Z,99.99
2018-08-16T00:34:10.805Z,99.99
2018-08-16T00:35:10.737Z,99.99
2018-08-16T00:36:31.652Z,99.99
2018-08-16T00:37:10.586Z,99.99
2018-08-16T00:38:31.503Z,99.99
2018-08-16T00:39:10.455Z,99.99
2018-08-16T00:40:10.379Z,99.99
2018-08-16T00:41:31.294Z,99.99
2018-08-16T00:42:10.233Z,99.99
2018-08-16T00:43:31.148Z,99.99
2018-08-16T00:44:10.090Z,99.99
2018-08-16T00:45:10.019Z,99.99
2018-08-16T00:46:30.930Z,99.99
2018-08-16T00:47:09.886Z,99.99
2018-08-16T00:48:30.790Z,99.99
2018-08-16T00:49:09.747Z,99.99
2018-08-16T00:50:09.667Z,99.99
2018-08-16T00:51:30.577Z,99.99
2018-08-16T00:52:09.521Z,99.99
2018-08-16T00:53:30.429Z,99.99
2018-08-16T00:54:09.372Z,99.99
2018-08-16T00:55:09.307Z,99.99
2018-08-16T00:56:30.215Z,99.99
2018-08-16T00:57:09.164Z,99.99
2018-08-16T00:58:30.073Z,99.99
2018-08-16T00:59:09.016Z,99.99
2018-08-16T01:00:08.944Z,99.99
2018-08-16T01:01:29.854Z,99.99
2018-08-16T01:02:08.803Z,99.99
2018-08-16T01:03:29.716Z,99.99
2018-08-16T01:04:08.661Z,99.99
2018-08-16T01:05:08.589Z,99.99
2018-08-16T01:06:29.501Z,99.99
2018-08-16T01:07:08.445Z,99.99
2018-08-16T01:08:29.354Z,99.99
2018-08-16T01:09:08.306Z,99.99
2018-08-16T01:10:08.225Z,99.99
2018-08-16T01:11:29.142Z,99.99
2018-08-16T01:12:08.082Z,99.99
2018-08-16T01:13:28.995Z,99.99
2018-08-16T01:14:07.942Z,99.99
2018-08-16T01:15:07.873Z,99.99
2018-08-16T01:16:28.785Z,99.99
2018-08-16T01:17:07.723Z,99.99
2018-08-16T01:18:28.638Z,99.99
2018-08-16T01:19:07.579Z,99.99
2018-08-16T01:20:07.564Z,99.99
2018-08-16T01:21:28.428Z,99.99
2018-08-16T01:22:07.369Z,99.99
2018-08-16T01:23:28.278Z,99.99
2018-08-16T01:24:07.224Z,99.99
2018-08-16T01:25:07.152Z,99.99
2018-08-16T01:26:28.063Z,99.99
2018-08-16T01:27:07.009Z,99.99
2018-08-16T01:28:27.920Z,99.99
2018-08-16T01:29:06.864Z,99.99
2018-08-16T01:30:06.789Z,99.99
2018-08-16T01:31:27.700Z,99.99
2018-08-16T01:32:06.649Z,99.99
2018-08-16T01:33:27.556Z,99.99
2018-08-16T01:34:06.505Z,99.99
2018-08-16T01:35:06.432Z,99.99
2018-08-16T01:36:27.345Z,99.99
2018-08-16T01:37:06.286Z,99.99
2018-08-16T01:38:27.199Z,99.99
2018-08-16T01:39:06.150Z,99.99
2018-08-16T01:40:06.076Z,99.99
2018-08-16T01:41:26.981Z,99.99
2018-08-16T01:42:05.932Z,99.99
2018-08-16T01:43:26.839Z,99.99
2018-08-16T01:44:05.784Z,99.99
2018-08-16T01:45:05.763Z,99.99
2018-08-16T01:46:26.621Z,99.99
2018-08-16T01:47:05.571Z,99.99
2018-08-16T01:48:26.479Z,99.99
2018-08-16T01:49:05.424Z,99.99
2018-08-16T01:50:05.353Z,99.99
2018-08-16T01:51:26.265Z,99.99
2018-08-16T01:52:05.207Z,99.99
2018-08-16T01:53:26.126Z,99.99
2018-08-16T01:54:05.068Z,99.99
2018-08-16T01:55:04.991Z,99.99
2018-08-16T01:56:25.904Z,99.99
2018-08-16T01:57:04.848Z,99.99
2018-08-16T01:58:25.760Z,99.99
2018-08-16T01:59:04.701Z,99.99
2018-08-16T02:00:04.629Z,99.99
2018-08-16T02:01:25.546Z,99.99
2018-08-16T02:02:04.490Z,99.99
2018-08-16T02:03:25.407Z,99.99
2018-08-16T02:04:04.346Z,99.99
2018-08-16T02:05:04.301Z,99.99
2018-08-16T02:06:25.184Z,99.99
2018-08-16T02:07:04.125Z,99.99
2018-08-16T02:08:25.035Z,99.99
2018-08-16T02:09:03.983Z,99.99
2018-08-16T02:10:03.919Z,99.99
2018-08-16T02:11:24.822Z,99.99
2018-08-16T02:12:03.769Z,99.99
2018-08-16T02:13:24.672Z,99.99
2018-08-16T02:14:03.620Z,99.99
2018-08-16T02:15:03.550Z,99.99
2018-08-16T02:16:24.477Z,99.99
2018-08-16T02:17:03.409Z,99.99
2018-08-16T02:18:24.320Z,99.99
2018-08-16T02:19:03.263Z,99.99
2018-08-16T02:20:03.193Z,99.99
2018-08-16T02:21:24.103Z,99.99
2018-08-16T02:22:03.042Z,99.99
2018-08-16T02:23:23.956Z,99.99
2018-08-16T02:24:02.909Z,99.99
2018-08-16T02:25:02.824Z,99.99
2018-08-16T02:26:23.738Z,99.99
2018-08-16T02:27:02.688Z,99.99
2018-08-16T02:28:23.592Z,99.99
2018-08-16T02:29:02.539Z,99.99
2018-08-16T02:30:02.464Z,99.99
2018-08-16T02:31:23.380Z,99.99
2018-08-16T02:32:02.330Z,99.99
2018-08-16T02:33:23.235Z,99.99
2018-08-16T02:34:02.185Z,99.99
2018-08-16T02:35:02.106Z,99.99
2018-08-16T02:36:23.026Z,99.99
2018-08-16T02:37:01.956Z,99.99
2018-08-16T02:38:22.868Z,99.99
2018-08-16T02:39:01.835Z,99.99
2018-08-16T02:40:01.748Z,99.99
2018-08-16T02:41:22.652Z,99.99
2018-08-16T02:42:01.604Z,99.99
2018-08-16T02:43:22.510Z,99.99
2018-08-16T02:44:01.455Z,99.99
2018-08-16T02:45:01.399Z,99.99
2018-08-16T02:46:22.292Z,99.99
2018-08-16T02:47:01.242Z,99.99
2018-08-16T02:48:22.146Z,99.99
2018-08-16T02:49:01.095Z,99.99
2018-08-16T02:50:01.019Z,99.99
2018-08-16T02:51:21.935Z,99.99
2018-08-16T02:52:00.876Z,99.99
2018-08-16T02:53:21.786Z,99.99
2018-08-16T02:54:00.737Z,99.99
2018-08-16T02:55:00.659Z,99.99
2018-08-16T02:56:21.575Z,99.99
2018-08-16T02:57:00.512Z,99.99
2018-08-16T02:58:21.488Z,99.99
2018-08-16T02:59:00.388Z,99.99
2018-08-16T03:00:00.320Z,99.99
2018-08-16T03:01:21.210Z,99.99
2018-08-16T03:02:00.156Z,99.99
2018-08-16T03:03:21.063Z,99.99
2018-08-16T03:04:00.007Z,99.99
2018-08-16T03:04:59.936Z,99.99
2018-08-16T03:06:20.848Z,99.99
2018-08-16T03:06:59.791Z,99.99
2018-08-16T03:08:20.701Z,99.99
2018-08-16T03:08:59.644Z,99.99
2018-08-16T03:09:59.575Z,99.99
2018-08-16T03:11:20.494Z,99.99
2018-08-16T03:11:59.429Z,99.99
2018-08-16T03:13:20.351Z,99.99
2018-08-16T03:13:59.290Z,99.99
2018-08-16T03:14:59.216Z,99.99
2018-08-16T03:16:20.127Z,99.99
2018-08-16T03:16:59.068Z,99.99
2018-08-16T03:18:19.976Z,99.99
2018-08-16T03:18:58.922Z,99.99
2018-08-16T03:19:58.855Z,99.99
2018-08-16T03:21:19.759Z,99.99
2018-08-16T03:21:58.709Z,99.99
2018-08-16T03:23:19.613Z,99.99
2018-08-16T03:23:58.580Z,99.99
2018-08-16T03:24:58.491Z,99.99
2018-08-16T03:26:19.393Z,99.99
2018-08-16T03:26:58.340Z,99.99
2018-08-16T03:28:19.257Z,99.99
2018-08-16T03:28:58.214Z,99.99
2018-08-16T03:29:58.137Z,99.99
2018-08-16T03:31:19.042Z,99.99
2018-08-16T03:31:57.991Z,99.99
2018-08-16T03:33:18.896Z,99.99
2018-08-16T03:33:57.850Z,99.99
2018-08-16T03:34:57.761Z,99.99
2018-08-16T03:36:18.671Z,99.99
2018-08-16T03:36:57.622Z,99.99
2018-08-16T03:38:18.528Z,99.99
2018-08-16T03:38:57.471Z,99.99
2018-08-16T03:39:57.397Z,99.99
2018-08-16T03:41:18.308Z,99.99
2018-08-16T03:41:57.254Z,99.99
2018-08-16T03:43:18.160Z,99.99
2018-08-16T03:43:57.114Z,99.99
2018-08-16T03:44:57.040Z,99.99
2018-08-16T03:46:17.950Z,99.99
2018-08-16T03:46:56.895Z,99.99
2018-08-16T03:48:17.860Z,99.99
2018-08-16T03:48:56.745Z,99.99
2018-08-16T03:49:56.680Z,99.99
2018-08-16T03:51:17.584Z,99.99
2018-08-16T03:51:56.529Z,99.99
2018-08-16T03:53:17.439Z,99.99
2018-08-16T03:53:56.384Z,99.99
2018-08-16T03:54:56.309Z,99.99
2018-08-16T03:56:17.230Z,99.99
2018-08-16T03:56:56.168Z,99.99
2018-08-16T03:58:17.073Z,99.99
2018-08-16T03:58:56.023Z,99.99
2018-08-16T03:59:55.949Z,99.99
2018-08-16T04:01:16.916Z,99.99
2018-08-16T04:01:55.803Z,99.99
2018-08-16T04:03:16.719Z,99.99
2018-08-16T04:03:55.672Z,99.99
2018-08-16T04:04:55.585Z,99.99
2018-08-16T04:06:16.504Z,99.99
2018-08-16T04:06:55.444Z,99.99
2018-08-16T04:08:16.347Z,99.99
2018-08-16T04:08:55.293Z,99.99
2018-08-16T04:09:55.219Z,99.99
2018-08-16T04:11:16.139Z,99.99
2018-08-16T04:11:55.078Z,99.99
2018-08-16T04:13:15.983Z,99.99
2018-08-16T04:13:54.935Z,99.99
2018-08-16T04:14:54.858Z,99.99
2018-08-16T04:16:15.766Z,99.99
2018-08-16T04:16:54.716Z,99.99
2018-08-16T04:18:15.628Z,99.99
2018-08-16T04:18:54.571Z,99.99
2018-08-16T04:19:54.502Z,99.99
2018-08-16T04:21:15.405Z,99.99
2018-08-16T04:21:54.363Z,99.99
2018-08-16T04:23:15.262Z,99.99
2018-08-16T04:23:54.205Z,99.99
2018-08-16T04:24:54.132Z,99.99
2018-08-16T04:26:15.044Z,99.99
2018-08-16T04:26:53.995Z,99.99
2018-08-16T04:28:14.901Z,99.99
2018-08-16T04:28:53.844Z,99.99
2018-08-16T04:29:53.773Z,99.99
2018-08-16T04:31:14.684Z,99.99
2018-08-16T04:31:53.621Z,99.99
2018-08-16T04:33:14.533Z,99.99
2018-08-16T04:33:53.475Z,99.99
2018-08-16T04:34:53.406Z,99.99
2018-08-16T04:36:14.311Z,99.99
2018-08-16T04:36:53.265Z,99.99
2018-08-16T04:38:14.167Z,99.99
2018-08-16T04:38:53.110Z,99.99
2018-08-16T04:39:53.038Z,99.99
2018-08-16T04:41:13.949Z,99.99
2018-08-16T04:41:52.946Z,99.99
2018-08-16T04:43:13.823Z,99.99
2018-08-16T04:43:52.751Z,99.99
2018-08-16T04:44:52.678Z,99.99
2018-08-16T04:46:13.581Z,99.99
2018-08-16T04:46:52.535Z,99.99
2018-08-16T04:48:13.447Z,99.99
2018-08-16T04:48:52.385Z,99.99
2018-08-16T04:49:52.315Z,99.99
2018-08-16T04:51:13.221Z,99.99
2018-08-16T04:51:52.168Z,99.99
2018-08-16T04:53:13.120Z,99.99
2018-08-16T04:53:52.024Z,99.99
2018-08-16T04:54:51.948Z,99.99
2018-08-16T04:56:12.855Z,99.99
2018-08-16T04:56:51.847Z,99.99
2018-08-16T04:58:12.717Z,99.99
2018-08-16T04:58:51.657Z,99.99
2018-08-16T04:59:51.591Z,99.99
2018-08-16T05:01:12.493Z,99.99
2018-08-16T05:01:51.447Z,99.99
2018-08-16T05:03:12.360Z,99.99
2018-08-16T05:03:51.294Z,99.99
2018-08-16T05:04:51.221Z,99.99
2018-08-16T05:06:12.139Z,99.99
2018-08-16T05:06:51.074Z,99.99
2018-08-16T05:08:11.992Z,99.99
2018-08-16T05:08:50.927Z,99.99
2018-08-16T05:09:50.859Z,99.99
2018-08-16T05:11:11.853Z,99.99
2018-08-16T05:11:50.713Z,99.99
2018-08-16T05:13:11.621Z,99.99
2018-08-16T05:13:50.565Z,99.99
2018-08-16T05:14:50.492Z,99.99
2018-08-16T05:16:11.412Z,99.99
2018-08-16T05:16:50.345Z,99.99
2018-08-16T05:18:11.259Z,99.99
2018-08-16T05:18:50.203Z,99.99
2018-08-16T05:19:50.132Z,99.99
2018-08-16T05:21:11.042Z,99.99
2018-08-16T05:21:49.985Z,99.99
2018-08-16T05:23:10.898Z,99.99
2018-08-16T05:23:49.873Z,99.99
2018-08-16T05:24:49.766Z,99.99
2018-08-16T05:26:10.683Z,99.99
2018-08-16T05:26:49.625Z,99.99
2018-08-16T05:28:10.534Z,99.99
2018-08-16T05:28:49.473Z,99.99
2018-08-16T05:29:49.402Z,99.99
2018-08-16T05:31:10.321Z,99.99
2018-08-16T05:31:49.265Z,99.99
2018-08-16T05:33:10.169Z,99.99
2018-08-16T05:33:49.115Z,99.99
2018-08-16T05:34:49.038Z,99.99
2018-08-16T05:36:09.961Z,99.99
2018-08-16T05:36:48.900Z,99.99
2018-08-16T05:38:09.811Z,99.99
2018-08-16T05:38:48.754Z,99.99
2018-08-16T05:39:48.705Z,99.99
2018-08-16T05:41:09.586Z,99.99
2018-08-16T05:41:48.535Z,99.99
2018-08-16T05:43:09.528Z,99.99
2018-08-16T05:43:48.387Z,99.99
2018-08-16T05:44:48.324Z,99.99
2018-08-16T05:46:09.226Z,99.99
2018-08-16T05:46:48.192Z,99.99
2018-08-16T05:48:09.083Z,99.99
2018-08-16T05:48:48.025Z,99.99
2018-08-16T05:49:47.953Z,99.99
2018-08-16T05:51:08.868Z,99.99
2018-08-16T05:51:47.809Z,99.99
2018-08-16T05:53:08.734Z,99.99
2018-08-16T05:53:47.706Z,99.99
2018-08-16T05:54:47.598Z,99.99
2018-08-16T05:56:08.517Z,99.99
2018-08-16T05:56:47.451Z,99.99
2018-08-16T05:58:08.364Z,99.99
2018-08-16T05:58:47.307Z,99.99
2018-08-16T05:59:47.232Z,99.99
2018-08-16T06:01:08.144Z,99.99
2018-08-16T06:01:47.086Z,99.99
2018-08-16T06:03:08.033Z,99.99
2018-08-16T06:03:46.940Z,99.99
2018-08-16T06:04:46.873Z,99.99
2018-08-16T06:06:07.781Z,99.99
2018-08-16T06:06:46.728Z,99.99
2018-08-16T06:08:07.641Z,99.99
2018-08-16T06:08:46.582Z,99.99
2018-08-16T06:09:46.512Z,99.99
2018-08-16T06:11:07.422Z,99.99
2018-08-16T06:11:46.364Z,99.99
2018-08-16T06:13:07.286Z,99.99
2018-08-16T06:13:46.221Z,99.99
2018-08-16T06:14:46.146Z,99.99
2018-08-16T06:16:07.061Z,99.99
2018-08-16T06:16:46.010Z,99.99
2018-08-16T06:18:06.915Z,99.99
2018-08-16T06:18:45.864Z,99.99
2018-08-16T06:19:45.793Z,99.99
2018-08-16T06:21:06.702Z,99.99
2018-08-16T06:21:45.645Z,99.99
2018-08-16T06:23:06.557Z,99.99
2018-08-16T06:23:45.504Z,99.99
2018-08-16T06:24:45.438Z,99.99
2018-08-16T06:26:06.346Z,99.99
2018-08-16T06:26:45.286Z,99.99
2018-08-16T06:28:06.196Z,99.99
2018-08-16T06:28:45.150Z,99.99
2018-08-16T06:29:45.076Z,99.99
2018-08-16T06:31:05.995Z,99.99
2018-08-16T06:31:45.025Z,99.99
2018-08-16T06:33:05.839Z,99.99
2018-08-16T06:33:44.783Z,99.99
2018-08-16T06:34:44.721Z,99.99
2018-08-16T06:36:05.627Z,99.99
2018-08-16T06:36:44.573Z,99.99
2018-08-16T06:38:05.483Z,99.99
2018-08-16T06:38:44.428Z,99.99
2018-08-16T06:39:44.361Z,99.99
2018-08-16T06:41:05.269Z,99.99
2018-08-16T06:41:44.218Z,99.99
2018-08-16T06:43:05.124Z,99.99
2018-08-16T06:43:44.067Z,99.99
2018-08-16T06:44:43.998Z,99.99
2018-08-16T06:46:04.910Z,99.99
2018-08-16T06:46:43.855Z,99.99
2018-08-16T06:48:04.770Z,99.99
2018-08-16T06:48:43.723Z,99.99
2018-08-16T06:49:43.640Z,99.99
2018-08-16T06:51:04.555Z,99.99
2018-08-16T06:51:43.521Z,99.99
2018-08-16T06:53:04.410Z,99.99
2018-08-16T06:53:43.356Z,99.99
2018-08-16T06:54:43.287Z,99.99
2018-08-16T06:56:04.206Z,99.99
2018-08-16T06:56:43.147Z,99.99
2018-08-16T06:58:04.054Z,99.99
2018-08-16T06:58:42.998Z,99.99
2018-08-16T06:59:42.930Z,99.99
2018-08-16T07:01:03.840Z,99.99
2018-08-16T07:01:42.789Z,99.99
2018-08-16T07:03:03.703Z,99.99
2018-08-16T07:03:42.650Z,99.99
2018-08-16T07:04:42.622Z,99.99
2018-08-16T07:06:03.485Z,99.99
2018-08-16T07:06:42.436Z,99.99
2018-08-16T07:08:03.345Z,99.99
2018-08-16T07:08:42.285Z,99.99
2018-08-16T07:09:42.219Z,99.99
2018-08-16T07:11:03.136Z,99.99
2018-08-16T07:11:42.079Z,99.99
2018-08-16T07:13:02.984Z,99.54
2018-08-16T07:13:41.933Z,99.44
2018-08-16T07:14:41.868Z,99.15
2018-08-16T07:16:02.772Z,99.83
2018-08-16T07:16:41.718Z,99.78
2018-08-16T07:18:02.629Z,98.63
2018-08-16T07:18:41.630Z,98.34
2018-08-16T07:19:41.514Z,98.82
2018-08-16T07:21:02.416Z,99.11
2018-08-16T07:21:41.370Z,97.38
2018-08-16T07:23:02.284Z,97.57
2018-08-16T07:23:41.222Z,98.14
2018-08-16T07:24:41.200Z,98.63
2018-08-16T07:26:02.068Z,98.72
2018-08-16T07:26:41.015Z,98.53
2018-08-16T07:28:01.926Z,99.06
2018-08-16T07:28:40.867Z,99.16
2018-08-16T07:29:40.796Z,99.99
2018-08-16T07:31:01.714Z,99.44
2018-08-16T07:31:40.657Z,98.19
2018-08-16T07:33:01.572Z,97.71
2018-08-16T07:33:40.527Z,96.37
2018-08-16T07:34:40.448Z,95.98
2018-08-16T07:36:01.370Z,95.65
2018-08-16T07:36:40.305Z,96.22
2018-08-16T07:38:01.217Z,95.74
2018-08-16T07:38:40.166Z,94.78
2018-08-16T07:39:40.092Z,93.82
2018-08-16T07:41:01.010Z,93.91
2018-08-16T07:41:39.987Z,94.01
2018-08-16T07:43:00.866Z,94.10
2018-08-16T07:43:39.813Z,93.33
2018-08-16T07:44:39.738Z,93.15
2018-08-16T07:46:00.721Z,93.43
2018-08-16T07:46:39.602Z,93.62
2018-08-16T07:48:00.520Z,94.97
2018-08-16T07:48:39.458Z,94.64
2018-08-16T07:49:39.498Z,93.48
2018-08-16T07:51:00.314Z,92.13
2018-08-16T07:51:39.436Z,92.32
2018-08-16T07:53:00.164Z,91.69
2018-08-16T07:53:39.110Z,91.36
2018-08-16T07:54:39.040Z,91.02
2018-08-16T07:55:59.953Z,89.77
2018-08-16T07:56:38.897Z,90.44
2018-08-16T07:57:59.817Z,91.12
2018-08-16T07:58:38.764Z,91.12
2018-08-16T07:59:38.688Z,90.83
2018-08-16T08:00:59.604Z,91.41
2018-08-16T08:01:38.548Z,92.66
2018-08-16T08:02:59.463Z,91.31
2018-08-16T08:03:38.408Z,90.34
2018-08-16T08:04:38.339Z,89.43
2018-08-16T08:05:59.252Z,88.90
2018-08-16T08:06:38.206Z,88.46
2018-08-16T08:07:59.116Z,88.08
2018-08-16T08:08:38.057Z,88.56
2018-08-16T08:09:38.143Z,88.27
2018-08-16T08:10:58.908Z,88.56
2018-08-16T08:11:37.848Z,88.37
2018-08-16T08:12:58.768Z,88.46
2018-08-16T08:13:37.714Z,87.98
2018-08-16T08:14:37.644Z,87.70
2018-08-16T08:15:58.558Z,88.27
2018-08-16T08:16:37.504Z,88.56
2018-08-16T08:17:58.423Z,88.65
2018-08-16T08:18:37.365Z,88.12
2018-08-16T08:19:37.295Z,88.27
2018-08-16T08:20:58.207Z,88.27
2018-08-16T08:21:37.157Z,88.22
2018-08-16T08:22:58.073Z,88.08
2018-08-16T08:23:37.014Z,86.96
2018-08-16T08:24:36.947Z,86.87
2018-08-16T08:25:57.863Z,87.16
2018-08-16T08:26:36.812Z,85.71
2018-08-16T08:27:57.730Z,85.71
2018-08-16T08:28:36.670Z,85.42
2018-08-16T08:29:36.599Z,84.94
2018-08-16T08:30:57.522Z,85.56
2018-08-16T08:31:36.466Z,84.89
2018-08-16T08:32:57.377Z,84.50
2018-08-16T08:33:36.322Z,83.73
2018-08-16T08:34:36.256Z,82.96
2018-08-16T08:35:57.172Z,83.73
2018-08-16T08:36:36.116Z,83.15
2018-08-16T08:37:57.037Z,83.34
2018-08-16T08:38:36.045Z,81.45
2018-08-16T08:39:35.915Z,81.26
2018-08-16T08:40:56.823Z,81.55
2018-08-16T08:41:35.772Z,81.26
2018-08-16T08:42:56.687Z,80.97
2018-08-16T08:43:35.634Z,80.68
2018-08-16T08:44:35.567Z,80.68
2018-08-16T08:45:56.483Z,79.91
2018-08-16T08:46:35.429Z,80.10
2018-08-16T08:47:56.344Z,80.00
2018-08-16T08:48:35.291Z,79.56
2018-08-16T08:49:35.225Z,79.47
2018-08-16T08:50:56.141Z,79.37
2018-08-16T08:51:35.087Z,79.17
2018-08-16T08:52:55.998Z,78.79
2018-08-16T08:53:34.948Z,78.15
2018-08-16T08:54:34.879Z,77.96
2018-08-16T08:55:55.794Z,77.80
2018-08-16T08:56:34.746Z,77.96
2018-08-16T08:57:55.661Z,78.64
2018-08-16T08:58:34.613Z,77.57
2018-08-16T08:59:34.539Z,77.76
2018-08-16T09:00:55.456Z,78.54
2018-08-16T09:01:34.405Z,77.96
2018-08-16T09:02:55.322Z,77.86
2018-08-16T09:03:34.267Z,76.22
2018-08-16T09:04:34.200Z,75.45
2018-08-16T09:05:55.115Z,75.64
2018-08-16T09:06:34.067Z,75.87
2018-08-16T09:07:54.992Z,75.10
2018-08-16T09:08:33.930Z,75.13
2018-08-16T09:09:33.875Z,73.59
2018-08-16T09:10:54.788Z,72.56
2018-08-16T09:11:33.735Z,71.30
2018-08-16T09:12:54.654Z,71.11
2018-08-16T09:13:33.604Z,70.34
2018-08-16T09:14:33.533Z,71.26
2018-08-16T09:15:54.461Z,71.75
2018-08-16T09:16:33.402Z,72.33
2018-08-16T09:17:54.323Z,72.72
2018-08-16T09:18:33.291Z,73.01
2018-08-16T09:19:33.205Z,72.85
2018-08-16T09:20:54.120Z,72.66
2018-08-16T09:21:33.069Z,70.27
2018-08-16T09:22:53.993Z,70.40
2018-08-16T09:23:32.940Z,67.85
2018-08-16T09:24:32.883Z,65.17
2018-08-16T09:25:53.796Z,63.10
2018-08-16T09:26:32.747Z,61.48
2018-08-16T09:27:53.664Z,60.54
2018-08-16T09:28:32.619Z,60.57
2018-08-16T09:29:32.559Z,60.05
2018-08-16T09:30:53.483Z,60.47
2018-08-16T09:31:32.498Z,58.75
2018-08-16T09:32:53.351Z,57.46
2018-08-16T09:33:32.303Z,57.46
2018-08-16T09:34:32.242Z,57.26
2018-08-16T09:35:53.163Z,57.26
2018-08-16T09:36:32.118Z,57.00
2018-08-16T09:37:53.046Z,56.15
2018-08-16T09:38:31.995Z,55.61
2018-08-16T09:39:31.974Z,55.86
2018-08-16T09:40:52.862Z,55.30
2018-08-16T09:41:31.812Z,55.11
2018-08-16T09:42:52.747Z,55.18
2018-08-16T09:43:31.694Z,55.18
2018-08-16T09:44:31.634Z,55.21
2018-08-16T09:45:52.558Z,54.89
2018-08-16T09:46:31.510Z,55.08
2018-08-16T09:47:52.443Z,55.76
2018-08-16T09:48:31.397Z,54.23
2018-08-16T09:49:31.334Z,53.11
2018-08-16T09:50:52.262Z,51.90
2018-08-16T09:51:31.263Z,52.00
2018-08-16T09:52:52.143Z,51.87
2018-08-16T09:53:31.100Z,51.85
2018-08-16T09:54:31.040Z,52.80
2018-08-16T09:55:51.971Z,52.89
2018-08-16T09:56:30.928Z,52.87
2018-08-16T09:57:51.854Z,53.79
2018-08-16T09:58:30.809Z,55.13
2018-08-16T09:59:30.745Z,55.01
2018-08-16T10:00:51.670Z,53.67
2018-08-16T10:01:30.622Z,53.02
2018-08-16T10:02:51.560Z,52.73
2018-08-16T10:03:30.506Z,52.67
2018-08-16T10:04:30.455Z,53.36
2018-08-16T10:05:51.411Z,53.02
2018-08-16T10:06:30.328Z,50.73
2018-08-16T10:07:51.257Z,51.48
2018-08-16T10:08:30.213Z,50.92
2018-08-16T10:09:30.158Z,50.24
2018-08-16T10:10:51.083Z,51.73
2018-08-16T10:11:30.047Z,51.95
2018-08-16T10:12:50.971Z,51.39
2018-08-16T10:13:29.948Z,50.90
2018-08-16T10:14:29.868Z,51.21
2018-08-16T10:15:50.805Z,50.34
2018-08-16T10:16:29.752Z,49.88
2018-08-16T10:17:50.679Z,49.41
2018-08-16T10:18:29.636Z,47.58
2018-08-16T10:19:29.590Z,46.84
2018-08-16T10:20:50.568Z,46.16
2018-08-16T10:21:29.464Z,46.37
2018-08-16T10:22:50.397Z,47.06
2018-08-16T10:23:29.356Z,45.92
2018-08-16T10:24:29.298Z,47.27
2018-08-16T10:25:50.243Z,48.71
2018-08-16T10:26:29.184Z,48.68
2018-08-16T10:27:50.115Z,49.12
2018-08-16T10:28:29.073Z,48.71
2018-08-16T10:29:29.017Z,49.56
2018-08-16T10:30:49.948Z,51.26
2018-08-16T10:31:28.902Z,52.89
2018-08-16T10:32:49.832Z,52.67
2018-08-16T10:33:28.787Z,53.79
2018-08-16T10:34:28.737Z,55.25
2018-08-16T10:35:49.665Z,56.03
2018-08-16T10:36:28.615Z,54.21
2018-08-16T10:37:49.556Z,54.08
2018-08-16T10:38:28.508Z,54.18
2018-08-16T10:39:28.442Z,54.35
2018-08-16T10:40:49.371Z,55.68
2018-08-16T10:41:28.338Z,56.56
2018-08-16T10:42:49.259Z,56.36
2018-08-16T10:43:28.208Z,56.75
2018-08-16T10:44:28.170Z,57.21
2018-08-16T10:45:49.073Z,57.89
2018-08-16T10:46:28.023Z,57.43
2018-08-16T10:47:48.949Z,57.43
2018-08-16T10:48:27.910Z,57.14
2018-08-16T10:49:27.841Z,57.40
2018-08-16T10:50:48.765Z,58.18
2018-08-16T10:51:27.716Z,57.98
2018-08-16T10:52:48.647Z,57.79
2018-08-16T10:53:27.589Z,58.64
2018-08-16T10:54:27.533Z,60.25
2018-08-16T10:55:48.480Z,59.97
2018-08-16T10:56:27.397Z,60.03
2018-08-16T10:57:48.322Z,60.84
2018-08-16T10:58:27.277Z,61.52
2018-08-16T10:59:27.211Z,60.48
2018-08-16T11:00:48.136Z,59.90
2018-08-16T11:01:27.141Z,59.19
2018-08-16T11:02:48.007Z,60.25
2018-08-16T11:03:26.958Z,60.25
2018-08-16T11:04:26.888Z,61.25
2018-08-16T11:05:47.824Z,61.55
2018-08-16T11:06:26.761Z,60.09
2018-08-16T11:07:47.688Z,59.15
2018-08-16T11:08:26.647Z,57.40
2018-08-16T11:09:26.564Z,57.72
2018-08-16T11:10:47.493Z,57.43
2018-08-16T11:11:26.460Z,57.14
2018-08-16T11:12:47.353Z,57.33
2018-08-16T11:13:26.308Z,56.95
2018-08-16T11:14:26.239Z,57.33
2018-08-16T11:15:47.160Z,57.82
2018-08-16T11:16:26.107Z,57.79
2018-08-16T11:17:47.034Z,57.98
2018-08-16T11:18:25.989Z,58.01
2018-08-16T11:19:25.919Z,57.33
2018-08-16T11:20:46.845Z,57.14
2018-08-16T11:21:25.788Z,56.95
2018-08-16T11:22:46.703Z,56.49
2018-08-16T11:23:25.658Z,56.75
2018-08-16T11:24:25.594Z,57.43
2018-08-16T11:25:46.513Z,57.14
2018-08-16T11:26:25.456Z,56.77
2018-08-16T11:27:46.411Z,57.14
2018-08-16T11:28:25.329Z,57.04
2018-08-16T11:29:25.391Z,57.33
2018-08-16T11:30:46.188Z,57.82
2018-08-16T11:31:25.140Z,57.43
2018-08-16T11:32:46.055Z,56.16
2018-08-16T11:33:25.010Z,56.16
2018-08-16T11:34:24.946Z,57.04
2018-08-16T11:35:45.864Z,57.43
2018-08-16T11:36:24.819Z,55.88
2018-08-16T11:37:45.781Z,56.85
2018-08-16T11:38:24.691Z,56.39
2018-08-16T11:39:24.622Z,56.36
2018-08-16T11:40:45.645Z,56.85
2018-08-16T11:41:24.496Z,55.98
2018-08-16T11:42:45.409Z,55.68
2018-08-16T11:43:24.363Z,56.00
2018-08-16T11:44:24.300Z,55.71
2018-08-16T11:45:45.214Z,54.54
2018-08-16T11:46:24.173Z,54.47
2018-08-16T11:47:45.094Z,53.59
2018-08-16T11:48:24.036Z,53.59
2018-08-16T11:49:23.980Z,52.92
2018-08-16T11:50:44.912Z,52.82
2018-08-16T11:51:23.844Z,53.23
2018-08-16T11:52:44.767Z,52.26
2018-08-16T11:53:23.717Z,53.14
2018-08-16T11:54:23.654Z,52.26
2018-08-16T11:55:44.573Z,51.67
2018-08-16T11:56:23.523Z,51.48
2018-08-16T11:57:44.454Z,52.26
2018-08-16T11:58:23.398Z,51.48
2018-08-16T11:59:23.330Z,51.87
2018-08-16T12:00:44.250Z,52.16
2018-08-16T12:01:23.199Z,52.16
2018-08-16T12:02:44.136Z,53.11
2018-08-16T12:03:23.076Z,53.30
2018-08-16T12:04:23.012Z,52.14
2018-08-16T12:05:43.932Z,52.14
2018-08-16T12:06:22.923Z,52.79
2018-08-16T12:07:43.813Z,53.28
2018-08-16T12:08:22.761Z,53.77
2018-08-16T12:09:22.698Z,52.89
2018-08-16T12:10:43.613Z,52.98
2018-08-16T12:11:22.559Z,52.40
2018-08-16T12:12:43.483Z,52.92
2018-08-16T12:13:22.444Z,52.26
2018-08-16T12:14:22.373Z,52.65
2018-08-16T12:15:43.294Z,53.62
2018-08-16T12:16:22.247Z,52.75
2018-08-16T12:17:43.164Z,53.91
2018-08-16T12:18:22.123Z,52.26
2018-08-16T12:19:22.064Z,50.99
2018-08-16T12:20:42.971Z,51.29
2018-08-16T12:21:21.925Z,51.36
2018-08-16T12:22:42.845Z,51.39
2018-08-16T12:23:21.807Z,51.19
2018-08-16T12:24:21.731Z,51.19
2018-08-16T12:25:42.651Z,50.21
2018-08-16T12:26:21.604Z,51.67
2018-08-16T12:27:42.525Z,53.04
2018-08-16T12:28:21.475Z,52.55
2018-08-16T12:29:21.409Z,52.38
2018-08-16T12:30:42.329Z,51.70
2018-08-16T12:31:21.286Z,51.80
2018-08-16T12:32:42.206Z,50.14
2018-08-16T12:33:21.154Z,50.24
2018-08-16T12:34:21.095Z,49.76
2018-08-16T12:35:42.008Z,50.34
2018-08-16T12:36:20.960Z,50.26
2018-08-16T12:37:41.909Z,50.46
2018-08-16T12:38:20.829Z,51.24
2018-08-16T12:39:20.783Z,50.85
2018-08-16T12:40:41.715Z,51.34
2018-08-16T12:41:20.641Z,51.14
2018-08-16T12:42:41.566Z,51.14
2018-08-16T12:43:20.509Z,51.04
2018-08-16T12:44:20.453Z,50.56
2018-08-16T12:45:41.366Z,51.34
2018-08-16T12:46:20.484Z,52.22
2018-08-16T12:47:41.310Z,51.43
2018-08-16T12:48:20.192Z,50.68
2018-08-16T12:49:20.128Z,51.63
2018-08-16T12:50:41.055Z,51.43
2018-08-16T12:51:20.003Z,50.48